createdAt,value
2018-07-12T00:00:01.815Z,16.20
2018-07-12T00:02:29.226Z,16.30
2018-07-12T00:04:56.639Z,16.20
2018-07-12T00:07:24.059Z,16.20
2018-07-12T00:09:51.488Z,16.10
2018-07-12T00:12:18.883Z,16.10
2018-07-12T00:14:46.300Z,16.00
2018-07-12T00:17:13.716Z,16.00
2018-07-12T00:19:41.149Z,16.00
2018-07-12T00:22:08.545Z,16.10
2018-07-12T00:24:35.949Z,16.00
2018-07-12T00:27:03.369Z,15.90
2018-07-12T00:29:30.763Z,15.80
2018-07-12T00:31:58.189Z,15.80
2018-07-12T00:34:25.598Z,15.80
2018-07-12T00:36:53.043Z,15.80
2018-07-12T00:39:20.444Z,15.90
2018-07-12T00:41:47.860Z,15.90
2018-07-12T00:44:15.253Z,15.80
2018-07-12T00:46:42.680Z,15.70
2018-07-12T00:49:10.085Z,15.70
2018-07-12T00:51:37.502Z,15.60
2018-07-12T00:54:04.895Z,15.50
2018-07-12T00:56:32.324Z,15.40
2018-07-12T00:58:59.784Z,15.40
2018-07-12T01:01:27.205Z,15.30
2018-07-12T01:04:01.208Z,15.20
2018-07-12T01:06:28.654Z,15.10
2018-07-12T01:08:56.060Z,15.20
2018-07-12T01:11:23.502Z,15.30
2018-07-12T01:13:51.096Z,15.40
2018-07-12T01:16:18.558Z,15.30
2018-07-12T01:18:45.968Z,15.40
2018-07-12T01:21:13.421Z,15.50
2018-07-12T01:23:40.822Z,15.60
2018-07-12T01:26:08.550Z,15.80
2018-07-12T01:28:35.987Z,15.80
2018-07-12T01:31:03.442Z,15.90
2018-07-12T01:33:30.861Z,15.90
2018-07-12T01:35:58.319Z,15.80
2018-07-12T01:38:25.944Z,15.80
2018-07-12T01:40:53.394Z,15.70
2018-07-12T01:43:20.846Z,15.70
2018-07-12T01:45:48.281Z,15.70
2018-07-12T01:50:43.423Z,15.60
2018-07-12T01:53:10.832Z,15.50
2018-07-12T01:55:38.288Z,15.60
2018-07-12T01:58:05.694Z,15.60
2018-07-12T02:00:33.173Z,15.60
2018-07-12T02:03:00.569Z,15.70
2018-07-12T02:05:27.985Z,15.70
2018-07-12T02:07:55.369Z,15.70
2018-07-12T02:10:22.774Z,15.80
2018-07-12T02:12:50.183Z,15.80
2018-07-12T02:15:17.693Z,15.90
2018-07-12T02:17:45.087Z,15.80
2018-07-12T02:20:12.511Z,15.90
2018-07-12T02:22:39.902Z,15.90
2018-07-12T02:25:07.296Z,15.70
2018-07-12T02:27:34.775Z,15.70
2018-07-12T02:30:02.158Z,15.70
2018-07-12T02:32:29.938Z,15.70
2018-07-12T02:34:57.414Z,15.60
2018-07-12T02:37:24.898Z,15.60
2018-07-12T02:39:52.311Z,15.50
2018-07-12T02:42:19.716Z,15.60
2018-07-12T02:44:47.133Z,15.60
2018-07-12T02:47:14.566Z,15.70
2018-07-12T02:49:42.012Z,15.60
2018-07-12T02:52:09.445Z,15.60
2018-07-12T02:54:36.840Z,15.50
2018-07-12T02:57:04.269Z,15.50
2018-07-12T02:59:31.706Z,15.50
2018-07-12T03:01:59.135Z,15.50
2018-07-12T03:04:26.538Z,15.50
2018-07-12T03:06:53.959Z,15.40
2018-07-12T03:09:21.389Z,15.50
2018-07-12T03:11:48.822Z,15.50
2018-07-12T03:14:16.208Z,15.50
2018-07-12T03:16:43.644Z,15.50
2018-07-12T03:19:11.025Z,15.50
2018-07-12T03:21:38.440Z,15.40
2018-07-12T03:24:05.850Z,15.40
2018-07-12T03:26:33.279Z,15.40
2018-07-12T03:29:00.658Z,15.50
2018-07-12T03:31:28.083Z,15.40
2018-07-12T03:33:55.471Z,15.30
2018-07-12T03:36:22.902Z,15.30
2018-07-12T03:38:50.331Z,15.30
2018-07-12T03:41:17.738Z,15.30
2018-07-12T03:43:45.137Z,15.40
2018-07-12T03:46:12.548Z,15.40
2018-07-12T03:48:39.938Z,15.40
2018-07-12T03:51:07.337Z,15.50
2018-07-12T03:53:34.737Z,15.50
2018-07-12T03:56:02.160Z,15.50
2018-07-12T03:58:29.574Z,15.50
2018-07-12T04:00:57.006Z,15.50
2018-07-12T04:03:24.400Z,15.60
2018-07-12T04:05:51.817Z,15.60
2018-07-12T04:08:19.215Z,15.60
2018-07-12T04:10:46.640Z,15.70
2018-07-12T04:13:14.055Z,15.70
2018-07-12T04:15:41.473Z,15.80
2018-07-12T04:18:08.869Z,15.70
2018-07-12T04:20:36.269Z,15.80
2018-07-12T04:23:07.151Z,15.80
2018-07-12T04:25:34.542Z,15.70
2018-07-12T04:28:01.974Z,15.70
2018-07-12T04:30:29.377Z,15.70
2018-07-12T04:32:56.798Z,15.70
2018-07-12T04:35:24.193Z,15.80
2018-07-12T04:37:51.664Z,15.90
2018-07-12T04:40:19.054Z,15.90
2018-07-12T04:42:46.476Z,16.00
2018-07-12T04:45:13.886Z,15.90
2018-07-12T04:47:41.293Z,16.00
2018-07-12T04:50:08.681Z,15.90
2018-07-12T04:52:36.100Z,15.90
2018-07-12T04:55:03.538Z,16.00
2018-07-12T04:57:30.959Z,16.00
2018-07-12T04:59:58.357Z,15.90
2018-07-12T05:02:25.774Z,16.00
2018-07-12T05:04:53.222Z,16.10
2018-07-12T05:07:20.648Z,16.10
2018-07-12T05:09:48.034Z,16.20
2018-07-12T05:12:15.461Z,16.20
2018-07-12T05:14:42.874Z,16.30
2018-07-12T05:17:10.307Z,16.30
2018-07-12T05:19:37.711Z,16.40
2018-07-12T05:22:05.160Z,16.50
2018-07-12T05:24:32.575Z,16.50
2018-07-12T05:26:59.998Z,16.60
2018-07-12T05:29:27.391Z,16.50
2018-07-12T05:31:54.817Z,16.30
2018-07-12T05:34:22.221Z,16.40
2018-07-12T05:36:55.657Z,16.40
2018-07-12T05:39:24.397Z,16.50
2018-07-12T05:41:53.002Z,16.70
2018-07-12T05:44:21.661Z,16.80
2018-07-12T05:46:50.821Z,17.00
2018-07-12T05:49:19.519Z,17.30
2018-07-12T05:51:48.493Z,17.10
2018-07-12T05:54:18.210Z,17.20
2018-07-12T05:56:47.152Z,17.40
2018-07-12T05:59:15.982Z,17.70
2018-07-12T06:01:55.837Z,17.80
2018-07-12T06:04:24.470Z,17.90
2018-07-12T06:06:53.181Z,17.90
2018-07-12T06:09:21.818Z,18.10
2018-07-12T06:11:50.483Z,18.30
2018-07-12T06:14:19.140Z,18.60
2018-07-12T06:16:47.836Z,18.80
2018-07-12T06:19:16.453Z,19.40
2018-07-12T06:21:45.093Z,19.20
2018-07-12T06:24:13.739Z,19.80
2018-07-12T06:26:42.417Z,20.50
2018-07-12T06:29:11.052Z,20.30
2018-07-12T06:31:39.694Z,21.70
2018-07-12T06:54:38.541Z,19.90
2018-07-12T06:57:07.262Z,20.60
2018-07-12T06:59:35.909Z,20.20
2018-07-12T07:02:04.612Z,22.90
2018-07-12T07:04:33.242Z,23.20
2018-07-12T07:07:01.937Z,22.60
2018-07-12T07:09:30.601Z,22.40
2018-07-12T07:11:59.280Z,21.20
2018-07-12T07:14:27.935Z,20.40
2018-07-12T07:16:56.618Z,20.30
2018-07-12T07:19:25.244Z,19.80
2018-07-12T07:21:54.087Z,19.70
2018-07-12T07:24:22.945Z,19.20
2018-07-12T07:26:51.629Z,19.60
2018-07-12T07:29:20.270Z,19.60
2018-07-12T07:31:48.975Z,19.50
2018-07-12T07:34:17.632Z,20.00
2018-07-12T07:36:46.266Z,20.10
2018-07-12T07:39:14.901Z,20.60
2018-07-12T07:41:43.530Z,20.80
2018-07-12T07:44:12.156Z,20.90
2018-07-12T07:46:40.824Z,21.00
2018-07-12T07:49:09.506Z,21.20
2018-07-12T07:51:38.116Z,21.10
2018-07-12T07:54:06.862Z,21.00
2018-07-12T07:56:35.674Z,20.90
2018-07-12T07:59:04.305Z,20.70
2018-07-12T08:01:33.101Z,20.80
2018-07-12T08:04:01.750Z,20.70
2018-07-12T08:06:30.358Z,21.10
2018-07-12T08:08:58.985Z,21.70
2018-07-12T08:11:27.616Z,22.10
2018-07-12T08:13:56.297Z,22.20
2018-07-12T08:16:24.916Z,22.10
2018-07-12T08:18:53.541Z,22.30
2018-07-12T08:21:22.161Z,21.50
2018-07-12T08:23:50.770Z,22.20
2018-07-12T08:26:19.366Z,22.50
2018-07-12T08:28:48.073Z,23.10
2018-07-12T08:31:16.657Z,22.90
2018-07-12T08:33:45.276Z,23.20
2018-07-12T08:36:13.909Z,22.70
2018-07-12T08:38:42.530Z,22.70
2018-07-12T08:41:11.128Z,22.40
2018-07-12T08:43:39.762Z,22.70
2018-07-12T08:46:08.370Z,23.50
2018-07-12T08:48:36.977Z,23.40
2018-07-12T08:51:05.564Z,23.50
2018-07-12T08:53:34.181Z,23.80
2018-07-12T08:56:02.788Z,23.70
2018-07-12T08:58:31.442Z,22.90
2018-07-12T09:01:00.073Z,23.80
2018-07-12T09:03:28.696Z,23.70
2018-07-12T09:05:57.277Z,23.60
2018-07-12T09:08:25.880Z,24.90
2018-07-12T09:10:54.524Z,23.80
2018-07-12T09:13:23.237Z,23.80
2018-07-12T09:15:51.947Z,24.70
2018-07-12T09:18:20.574Z,24.50
2018-07-12T09:20:49.216Z,23.50
2018-07-12T09:23:17.998Z,24.10
2018-07-12T09:25:46.625Z,24.70
2018-07-12T09:28:15.270Z,24.80
2018-07-12T09:30:43.908Z,23.50
2018-07-12T09:33:15.796Z,22.70
2018-07-12T09:35:44.397Z,22.80
2018-07-12T09:38:29.032Z,22.00
2018-07-12T09:40:57.652Z,21.70
2018-07-12T09:43:26.386Z,22.90
2018-07-12T09:45:55.026Z,25.50
2018-07-12T09:48:23.661Z,25.70
2018-07-12T09:50:52.301Z,24.50
2018-07-12T09:53:20.947Z,25.00
2018-07-12T09:55:49.667Z,24.90
2018-07-12T09:58:28.737Z,24.90
2018-07-12T10:01:02.695Z,25.00
2018-07-12T10:03:36.549Z,24.80
2018-07-12T10:06:10.538Z,24.00
2018-07-12T10:08:44.506Z,23.20
2018-07-12T10:11:18.385Z,22.90
2018-07-12T10:13:51.214Z,23.20
2018-07-12T10:16:25.737Z,23.20
2018-07-12T10:18:54.370Z,24.10
2018-07-12T10:21:23.000Z,24.30
2018-07-12T10:23:51.623Z,24.20
2018-07-12T10:26:20.228Z,24.70
2018-07-12T10:28:48.846Z,24.90
2018-07-12T10:31:17.501Z,25.20
2018-07-12T10:36:14.404Z,24.80
2018-07-12T10:38:43.029Z,24.60
2018-07-12T10:41:11.681Z,25.60
2018-07-12T10:43:40.284Z,24.70
2018-07-12T10:46:08.926Z,24.10
2018-07-12T10:48:37.522Z,27.00
2018-07-12T10:51:06.317Z,25.90
2018-07-12T10:53:34.919Z,24.70
2018-07-12T10:56:03.621Z,24.50
2018-07-12T10:58:32.250Z,24.50
2018-07-12T11:01:00.897Z,28.00
2018-07-12T11:03:29.523Z,25.70
2018-07-12T11:05:58.154Z,25.60
2018-07-12T11:08:26.857Z,25.20
2018-07-12T11:10:55.544Z,24.80
2018-07-12T11:13:57.278Z,23.90
2018-07-12T11:16:25.946Z,23.90
2018-07-12T11:18:54.637Z,23.80
2018-07-12T11:21:23.293Z,23.50
2018-07-12T11:23:52.105Z,24.40
2018-07-12T11:26:20.781Z,24.50
2018-07-12T11:28:49.418Z,24.80
2018-07-12T11:31:18.170Z,24.90
2018-07-12T11:33:49.995Z,24.50
2018-07-12T11:36:18.782Z,24.90
2018-07-12T11:38:47.747Z,24.50
2018-07-12T11:41:16.453Z,25.20
2018-07-12T11:43:45.075Z,25.10
2018-07-12T11:46:15.054Z,25.30
2018-07-12T11:48:44.335Z,25.50
2018-07-12T11:51:13.144Z,25.30
2018-07-12T11:56:10.100Z,25.50
2018-07-12T11:58:38.758Z,28.00
2018-07-12T12:01:07.500Z,27.10
2018-07-12T12:03:36.148Z,26.70
2018-07-12T12:06:05.696Z,26.60
2018-07-12T12:08:34.330Z,26.40
2018-07-12T12:11:03.010Z,26.90
2018-07-12T12:13:31.652Z,25.50
2018-07-12T12:16:00.293Z,26.30
2018-07-12T12:18:28.950Z,25.60
2018-07-12T12:20:57.638Z,24.60
2018-07-12T12:23:26.309Z,24.90
2018-07-12T12:25:54.997Z,24.90
2018-07-12T12:28:23.659Z,25.00
2018-07-12T12:30:52.289Z,25.10
2018-07-12T12:33:20.914Z,25.50
2018-07-12T12:35:49.573Z,25.40
2018-07-12T12:38:18.188Z,25.40
2018-07-12T12:40:46.836Z,25.20
2018-07-12T12:43:15.477Z,25.30
2018-07-12T12:45:44.121Z,25.50
2018-07-12T12:48:12.763Z,25.40
2018-07-12T12:50:41.409Z,25.20
2018-07-12T12:53:10.035Z,24.80
2018-07-12T12:55:38.770Z,25.40
2018-07-12T12:58:07.341Z,26.00
2018-07-12T13:00:35.966Z,26.20
2018-07-12T13:03:04.572Z,26.20
2018-07-12T13:05:33.236Z,26.60
2018-07-12T13:08:01.895Z,25.90
2018-07-12T13:10:30.524Z,24.90
2018-07-12T13:12:59.153Z,24.40
2018-07-12T13:15:27.848Z,24.10
2018-07-12T13:17:56.572Z,24.50
2018-07-12T13:20:25.220Z,24.80
2018-07-12T13:22:53.829Z,25.40
2018-07-12T13:25:22.617Z,25.80
2018-07-12T13:27:51.315Z,25.70
2018-07-12T13:30:20.302Z,25.70
2018-07-12T13:32:48.958Z,25.80
2018-07-12T13:35:17.603Z,25.40
2018-07-12T13:37:46.234Z,25.00
2018-07-12T13:40:14.895Z,24.90
2018-07-12T13:42:43.525Z,24.50
2018-07-12T13:45:12.152Z,25.10
2018-07-12T13:47:40.858Z,25.60
2018-07-12T13:50:09.493Z,26.40
2018-07-12T13:52:38.177Z,27.00
2018-07-12T13:55:06.779Z,26.60
2018-07-12T13:57:35.444Z,26.70
2018-07-12T14:00:04.397Z,25.90
2018-07-12T14:02:33.025Z,25.00
2018-07-12T14:05:01.839Z,25.10
2018-07-12T14:07:30.465Z,25.50
2018-07-12T14:09:59.131Z,26.00
2018-07-12T14:12:27.777Z,26.20
2018-07-12T14:14:56.421Z,26.40
2018-07-12T14:17:25.089Z,26.80
2018-07-12T14:19:53.677Z,26.90
2018-07-12T14:22:22.312Z,26.80
2018-07-12T14:24:50.914Z,27.10
2018-07-12T14:27:19.530Z,27.90
2018-07-12T14:29:48.119Z,28.00
2018-07-12T14:32:16.749Z,28.70
2018-07-12T14:34:45.355Z,28.60
2018-07-12T14:37:13.989Z,28.60
2018-07-12T14:39:42.582Z,28.20
2018-07-12T14:42:11.256Z,28.10
2018-07-12T14:44:39.886Z,28.00
2018-07-12T14:47:08.633Z,28.00
2018-07-12T14:49:37.293Z,28.00
2018-07-12T14:52:05.969Z,28.10
2018-07-12T14:54:34.644Z,27.90
2018-07-12T14:57:03.259Z,27.50
2018-07-12T14:59:31.892Z,27.00
2018-07-12T15:02:00.519Z,27.30
2018-07-12T15:04:29.142Z,27.20
2018-07-12T15:06:57.774Z,27.60
2018-07-12T15:09:26.477Z,27.40
2018-07-12T15:11:55.085Z,27.60
2018-07-12T15:14:23.705Z,27.70
2018-07-12T15:16:52.411Z,27.20
2018-07-12T15:19:21.016Z,27.30
2018-07-12T15:21:49.590Z,27.10
2018-07-12T15:24:18.222Z,27.20
2018-07-12T15:26:46.850Z,27.30
2018-07-12T15:29:15.512Z,27.30
2018-07-12T15:31:44.148Z,26.80
2018-07-12T15:34:12.756Z,27.10
2018-07-12T15:36:41.366Z,27.30
2018-07-12T15:39:10.075Z,26.80
2018-07-12T15:41:39.248Z,27.00
2018-07-12T15:44:07.946Z,26.70
2018-07-12T15:46:36.519Z,26.20
2018-07-12T15:49:05.197Z,26.00
2018-07-12T15:51:34.024Z,25.90
2018-07-12T15:54:02.679Z,26.20
2018-07-12T15:58:59.572Z,26.70
2018-07-12T16:01:28.260Z,27.00
2018-07-12T16:03:56.858Z,27.10
2018-07-12T16:06:25.532Z,27.40
2018-07-12T16:08:54.162Z,27.20
2018-07-12T16:11:22.829Z,27.30
2018-07-12T16:13:51.481Z,27.30
2018-07-12T16:16:20.139Z,27.30
2018-07-12T16:18:48.786Z,27.40
2018-07-12T16:21:17.430Z,26.10
2018-07-12T16:23:46.077Z,26.50
2018-07-12T16:26:14.680Z,27.50
2018-07-12T16:28:43.331Z,27.70
2018-07-12T16:31:11.945Z,28.30
2018-07-12T16:33:40.608Z,29.00
2018-07-12T16:36:09.385Z,28.90
2018-07-12T16:38:38.046Z,29.20
2018-07-12T16:41:06.735Z,28.40
2018-07-12T16:43:35.393Z,28.70
2018-07-12T16:46:04.036Z,29.90
2018-07-12T16:48:32.745Z,29.40
2018-07-12T16:51:01.349Z,30.00
2018-07-12T16:53:30.017Z,30.70
2018-07-12T16:55:58.680Z,31.00
2018-07-12T16:58:27.364Z,31.40
2018-07-12T17:00:55.969Z,32.10
2018-07-12T17:03:24.658Z,31.00
2018-07-12T17:05:53.285Z,31.00
2018-07-12T17:08:21.920Z,30.90
2018-07-12T17:10:50.518Z,31.00
2018-07-12T17:15:47.459Z,30.90
2018-07-12T17:18:16.137Z,31.10
2018-07-12T17:20:46.648Z,31.30
2018-07-12T17:23:15.267Z,31.90
2018-07-12T17:25:43.877Z,32.20
2018-07-12T17:28:12.511Z,31.60
2018-07-12T17:30:41.138Z,31.10
2018-07-12T17:33:09.818Z,31.40
2018-07-12T17:35:38.396Z,30.80
2018-07-12T17:38:07.106Z,29.80
2018-07-12T17:40:35.715Z,29.80
2018-07-12T17:43:04.337Z,30.10
2018-07-12T17:45:33.040Z,30.30
2018-07-12T17:48:01.671Z,30.10
2018-07-12T17:50:30.281Z,30.20
2018-07-12T17:52:58.921Z,29.80
2018-07-12T17:55:27.523Z,29.10
2018-07-12T17:57:56.145Z,28.30
2018-07-12T18:00:24.764Z,28.30
2018-07-12T18:02:53.374Z,28.20
2018-07-12T18:05:22.142Z,27.70
2018-07-12T18:07:50.657Z,27.30
2018-07-12T18:10:19.411Z,26.60
2018-07-12T18:12:49.323Z,26.00
2018-07-12T18:15:17.937Z,25.70
2018-07-12T18:17:46.657Z,25.20
2018-07-12T18:20:15.325Z,24.30
2018-07-12T18:22:44.186Z,24.20
2018-07-12T18:25:12.926Z,23.80
2018-07-12T18:27:41.672Z,23.40
2018-07-12T18:30:10.422Z,23.30
2018-07-12T18:35:08.006Z,22.30
2018-07-12T18:37:37.248Z,22.10
2018-07-12T18:40:06.088Z,22.00
2018-07-12T18:42:34.797Z,22.00
2018-07-12T18:45:03.485Z,22.00
2018-07-12T18:47:32.145Z,21.80
2018-07-12T18:50:00.790Z,21.50
2018-07-12T18:52:29.442Z,21.30
2018-07-12T18:54:58.075Z,21.10
2018-07-12T18:57:33.357Z,20.90
2018-07-12T19:00:02.003Z,20.80
2018-07-12T19:02:30.695Z,20.60
2018-07-12T19:04:59.273Z,20.50
2018-07-12T19:07:27.923Z,20.30
2018-07-12T19:09:56.558Z,20.10
2018-07-12T19:12:25.170Z,20.00
2018-07-12T19:14:53.934Z,20.00
2018-07-12T19:17:22.521Z,20.00
2018-07-12T19:19:51.165Z,19.90
2018-07-12T19:22:19.788Z,19.80
2018-07-12T19:24:48.414Z,19.70
2018-07-12T19:27:17.156Z,19.60
2018-07-12T19:29:45.802Z,19.50
2018-07-12T19:32:14.774Z,19.30
2018-07-12T19:34:43.550Z,19.10
2018-07-12T19:37:12.129Z,19.00
2018-07-12T19:39:40.798Z,18.90
2018-07-12T19:42:09.405Z,18.80
2018-07-12T19:44:38.183Z,18.80
2018-07-12T19:47:06.947Z,18.60
2018-07-12T19:49:35.730Z,18.60
2018-07-12T19:52:04.373Z,18.50
2018-07-12T19:54:33.014Z,18.50
2018-07-12T19:57:01.655Z,18.40
2018-07-12T19:59:30.323Z,18.30
2018-07-12T20:01:58.986Z,18.30
2018-07-12T20:04:27.647Z,18.30
2018-07-12T20:06:56.350Z,18.30
2018-07-12T20:09:24.991Z,18.30
2018-07-12T20:11:53.642Z,18.30
2018-07-12T20:14:22.327Z,18.20
2018-07-12T20:16:50.970Z,18.20
2018-07-12T20:19:19.629Z,18.20
2018-07-12T20:21:48.325Z,18.20
2018-07-12T20:24:17.011Z,18.10
2018-07-12T20:26:45.633Z,18.00
2018-07-12T20:29:14.306Z,18.00
2018-07-12T20:31:42.955Z,18.00
2018-07-12T20:34:11.622Z,18.00
2018-07-12T20:36:40.348Z,18.00
2018-07-12T20:39:09.632Z,18.00
2018-07-12T20:41:38.323Z,18.00
2018-07-12T20:44:07.917Z,18.00
2018-07-12T20:46:36.600Z,18.10
2018-07-12T20:49:05.278Z,18.20
2018-07-12T20:51:33.860Z,18.20
2018-07-12T20:54:02.548Z,18.20
2018-07-12T20:56:31.244Z,18.10
2018-07-12T20:59:00.192Z,18.10
2018-07-12T21:01:28.875Z,18.00
2018-07-12T21:03:57.530Z,18.10
2018-07-12T21:06:26.180Z,18.00
2018-07-12T21:08:54.840Z,18.00
2018-07-12T21:11:24.049Z,17.90
2018-07-12T21:13:52.731Z,18.00
2018-07-12T21:16:21.363Z,18.10
2018-07-12T21:18:49.993Z,18.20
2018-07-12T21:21:18.610Z,18.10
2018-07-12T21:23:47.241Z,18.10
2018-07-12T21:26:15.985Z,18.10
2018-07-12T21:28:44.622Z,18.00
2018-07-12T21:31:13.257Z,18.00
2018-07-12T21:33:41.991Z,18.00
2018-07-12T21:36:10.802Z,18.00
2018-07-12T21:38:39.422Z,18.00
2018-07-12T21:41:08.050Z,18.00
2018-07-12T21:43:36.705Z,18.00
2018-07-12T21:46:05.493Z,18.00
2018-07-12T21:48:34.118Z,18.10
2018-07-12T21:51:02.803Z,18.10
2018-07-12T21:53:31.400Z,18.10
2018-07-12T21:56:00.059Z,18.00
2018-07-12T21:58:28.698Z,18.00
2018-07-12T22:03:25.595Z,18.00
2018-07-12T22:05:54.265Z,18.10
2018-07-12T22:08:24.169Z,18.00
2018-07-12T22:10:54.681Z,17.90
2018-07-12T22:13:23.973Z,17.80
2018-07-12T22:15:52.662Z,17.70
2018-07-12T22:18:21.434Z,17.50
2018-07-12T22:20:50.116Z,17.40
2018-07-12T22:23:18.748Z,17.20
2018-07-12T22:25:47.428Z,17.00
2018-07-12T22:28:16.091Z,16.80
2018-07-12T22:30:44.771Z,16.70
2018-07-12T22:33:13.393Z,16.50
2018-07-12T22:35:42.028Z,16.30
2018-07-12T22:38:10.692Z,16.20
2018-07-12T22:40:39.378Z,16.10
2018-07-12T22:43:08.030Z,16.00
2018-07-12T22:45:36.735Z,16.00
2018-07-12T22:48:05.484Z,15.90
2018-07-12T22:50:34.081Z,15.90
2018-07-12T22:53:02.726Z,15.90
2018-07-12T22:55:31.384Z,15.90
2018-07-12T22:58:00.036Z,15.90
2018-07-12T23:00:28.729Z,15.80
2018-07-12T23:02:57.414Z,15.70
2018-07-12T23:07:54.329Z,15.50
2018-07-12T23:10:22.983Z,15.40
2018-07-12T23:12:51.606Z,15.40
2018-07-12T23:15:20.245Z,15.30
2018-07-12T23:17:48.873Z,15.30
2018-07-12T23:20:17.469Z,15.40
2018-07-12T23:22:46.069Z,15.50
2018-07-12T23:25:14.738Z,15.50
2018-07-12T23:27:43.355Z,15.60
2018-07-12T23:32:40.284Z,15.60
2018-07-12T23:35:08.961Z,15.60
2018-07-12T23:37:37.568Z,15.60
2018-07-12T23:40:06.230Z,15.50
2018-07-12T23:42:34.834Z,15.50
2018-07-12T23:45:03.457Z,15.40
2018-07-12T23:47:32.095Z,15.40
2018-07-12T23:50:00.722Z,15.30
2018-07-12T23:52:29.345Z,15.30
2018-07-12T23:54:57.936Z,15.30
2018-07-12T23:57:26.585Z,15.20
2018-07-12T23:59:55.209Z,15.20
